sensor_id;sensor_type;location;lat;lon;timestamp;temperature;humidity
13245;DHT22;6689;53.400;12.486;2023-04-15T00:00:00;8.80;99.90
13245;DHT22;6689;53.400;12.486;2023-04-15T00:02:28;8.80;99.90
13245;DHT22;6689;53.400;12.486;2023-04-15T00:04:55;8.80;99.90
13245;DHT22;6689;53.400;12.486;2023-04-15T00:07:23;8.90;99.90
13245;DHT22;6689;53.400;12.486;2023-04-15T00:09:50;8.90;99.90
13245;DHT22;6689;53.400;12.486;2023-04-15T00:12:21;8.90;99.90
13245;DHT22;6689;53.400;12.486;2023-04-15T00:14:48;8.90;99.90
13245;DHT22;6689;53.400;12.486;2023-04-15T00:17:16;8.90;99.90
13245;DHT22;6689;53.400;12.486;2023-04-15T00:19:43;8.90;99.90
13245;DHT22;6689;53.400;12.486;2023-04-15T00:22:11;8.80;99.90
13245;DHT22;6689;53.400;12.486;2023-04-15T00:24:39;8.80;99.90
13245;DHT22;6689;53.400;12.486;2023-04-15T00:27:06;8.80;99.90
13245;DHT22;6689;53.400;12.486;2023-04-15T00:29:35;8.80;99.90
13245;DHT22;6689;53.400;12.486;2023-04-15T00:32:02;8.90;99.90
13245;DHT22;6689;53.400;12.486;2023-04-15T00:34:31;8.80;99.90
13245;DHT22;6689;53.400;12.486;2023-04-15T00:36:58;8.80;99.90
13245;DHT22;6689;53.400;12.486;2023-04-15T00:39:26;8.80;99.90
13245;DHT22;6689;53.400;12.486;2023-04-15T00:41:54;8.90;99.90
13245;DHT22;6689;53.400;12.486;2023-04-15T00:44:22;8.90;99.90
13245;DHT22;6689;53.400;12.486;2023-04-15T00:46:51;8.80;99.90
13245;DHT22;6689;53.400;12.486;2023-04-15T00:49:19;8.80;99.90
13245;DHT22;6689;53.400;12.486;2023-04-15T00:51:46;8.90;99.90
13245;DHT22;6689;53.400;12.486;2023-04-15T00:54:13;8.90;99.90
13245;DHT22;6689;53.400;12.486;2023-04-15T00:56:41;8.90;99.90
13245;DHT22;6689;53.400;12.486;2023-04-15T00:59:08;8.90;99.90
13245;DHT22;6689;53.400;12.486;2023-04-15T01:01:36;8.90;99.90
13245;DHT22;6689;53.400;12.486;2023-04-15T01:04:05;8.80;99.90
13245;DHT22;6689;53.400;12.486;2023-04-15T01:06:34;8.80;99.90
13245;DHT22;6689;53.400;12.486;2023-04-15T01:09:04;8.90;99.90
13245;DHT22;6689;53.400;12.486;2023-04-15T01:11:32;8.90;99.90
13245;DHT22;6689;53.400;12.486;2023-04-15T01:14:00;8.90;99.90
13245;DHT22;6689;53.400;12.486;2023-04-15T01:16:27;8.90;99.90
13245;DHT22;6689;53.400;12.486;2023-04-15T01:18:55;8.90;99.90
13245;DHT22;6689;53.400;12.486;2023-04-15T01:21:23;8.90;99.90
13245;DHT22;6689;53.400;12.486;2023-04-15T01:23:52;8.90;99.90
13245;DHT22;6689;53.400;12.486;2023-04-15T01:26:23;8.90;99.90
13245;DHT22;6689;53.400;12.486;2023-04-15T01:28:50;8.90;99.90
13245;DHT22;6689;53.400;12.486;2023-04-15T01:31:17;8.90;99.90
13245;DHT22;6689;53.400;12.486;2023-04-15T01:33:45;8.90;1.00
13245;DHT22;6689;53.400;12.486;2023-04-15T01:36:13;8.90;99.90
13245;DHT22;6689;53.400;12.486;2023-04-15T01:38:40;8.90;99.90
13245;DHT22;6689;53.400;12.486;2023-04-15T01:41:07;8.90;99.90
13245;DHT22;6689;53.400;12.486;2023-04-15T01:43:36;8.80;1.00
13245;DHT22;6689;53.400;12.486;2023-04-15T01:46:09;8.90;99.90
13245;DHT22;6689;53.400;12.486;2023-04-15T01:48:36;8.90;99.90
13245;DHT22;6689;53.400;12.486;2023-04-15T01:51:04;8.90;1.00
13245;DHT22;6689;53.400;12.486;2023-04-15T01:53:31;8.90;1.00
13245;DHT22;6689;53.400;12.486;2023-04-15T01:55:59;8.90;1.00
13245;DHT22;6689;53.400;12.486;2023-04-15T01:58:27;8.90;1.00
13245;DHT22;6689;53.400;12.486;2023-04-15T02:00:55;8.90;1.00
13245;DHT22;6689;53.400;12.486;2023-04-15T02:03:24;8.90;1.00
13245;DHT22;6689;53.400;12.486;2023-04-15T02:05:52;8.90;1.00
13245;DHT22;6689;53.400;12.486;2023-04-15T02:08:19;8.90;1.00
13245;DHT22;6689;53.400;12.486;2023-04-15T02:10:47;8.80;1.00
13245;DHT22;6689;53.400;12.486;2023-04-15T02:13:14;8.90;1.00
13245;DHT22;6689;53.400;12.486;2023-04-15T02:15:49;8.90;1.00
13245;DHT22;6689;53.400;12.486;2023-04-15T02:18:18;8.90;99.90
13245;DHT22;6689;53.400;12.486;2023-04-15T02:20:46;8.90;99.90
13245;DHT22;6689;53.400;12.486;2023-04-15T02:23:13;8.80;99.90
13245;DHT22;6689;53.400;12.486;2023-04-15T02:25:41;8.90;1.40
13245;DHT22;6689;53.400;12.486;2023-04-15T02:28:08;8.90;99.90
13245;DHT22;6689;53.400;12.486;2023-04-15T02:30:38;8.80;99.90
13245;DHT22;6689;53.400;12.486;2023-04-15T02:33:06;8.80;99.90
13245;DHT22;6689;53.400;12.486;2023-04-15T02:35:35;8.90;99.90
13245;DHT22;6689;53.400;12.486;2023-04-15T02:38:04;8.80;99.90
13245;DHT22;6689;53.400;12.486;2023-04-15T02:40:31;8.80;1.00
13245;DHT22;6689;53.400;12.486;2023-04-15T02:42:58;8.80;99.90
13245;DHT22;6689;53.400;12.486;2023-04-15T02:45:26;8.80;99.90
13245;DHT22;6689;53.400;12.486;2023-04-15T02:47:53;8.80;1.00
13245;DHT22;6689;53.400;12.486;2023-04-15T02:50:21;8.80;99.90
13245;DHT22;6689;53.400;12.486;2023-04-15T02:52:51;8.80;99.90
13245;DHT22;6689;53.400;12.486;2023-04-15T02:55:18;8.80;99.90
13245;DHT22;6689;53.400;12.486;2023-04-15T02:57:46;8.80;99.90
13245;DHT22;6689;53.400;12.486;2023-04-15T03:00:13;8.80;99.90
13245;DHT22;6689;53.400;12.486;2023-04-15T03:02:41;8.80;99.90
13245;DHT22;6689;53.400;12.486;2023-04-15T03:05:11;8.80;99.90
13245;DHT22;6689;53.400;12.486;2023-04-15T03:07:40;8.80;99.90
13245;DHT22;6689;53.400;12.486;2023-04-15T03:10:09;8.80;99.90
13245;DHT22;6689;53.400;12.486;2023-04-15T03:12:37;8.80;99.90
13245;DHT22;6689;53.400;12.486;2023-04-15T03:15:06;8.80;99.90
13245;DHT22;6689;53.400;12.486;2023-04-15T03:17:34;8.80;99.90
13245;DHT22;6689;53.400;12.486;2023-04-15T03:20:01;8.80;99.90
13245;DHT22;6689;53.400;12.486;2023-04-15T03:22:29;8.80;99.90
13245;DHT22;6689;53.400;12.486;2023-04-15T03:24:57;8.80;99.90
13245;DHT22;6689;53.400;12.486;2023-04-15T03:27:25;8.80;99.90
13245;DHT22;6689;53.400;12.486;2023-04-15T03:29:53;8.80;99.90
13245;DHT22;6689;53.400;12.486;2023-04-15T03:32:21;8.80;99.90
13245;DHT22;6689;53.400;12.486;2023-04-15T03:34:48;8.70;99.90
13245;DHT22;6689;53.400;12.486;2023-04-15T03:37:16;8.80;99.90
13245;DHT22;6689;53.400;12.486;2023-04-15T03:39:43;8.80;99.90
13245;DHT22;6689;53.400;12.486;2023-04-15T03:42:11;8.80;99.90
13245;DHT22;6689;53.400;12.486;2023-04-15T03:44:39;8.80;99.90
13245;DHT22;6689;53.400;12.486;2023-04-15T03:47:07;8.80;99.90
13245;DHT22;6689;53.400;12.486;2023-04-15T03:49:34;8.80;99.90
13245;DHT22;6689;53.400;12.486;2023-04-15T03:52:02;8.80;99.90
13245;DHT22;6689;53.400;12.486;2023-04-15T03:54:29;8.80;99.90
13245;DHT22;6689;53.400;12.486;2023-04-15T03:56:56;8.80;99.90
13245;DHT22;6689;53.400;12.486;2023-04-15T03:59:23;8.80;99.90
13245;DHT22;6689;53.400;12.486;2023-04-15T04:01:52;8.80;99.90
13245;DHT22;6689;53.400;12.486;2023-04-15T04:04:19;8.80;99.90
13245;DHT22;6689;53.400;12.486;2023-04-15T04:06:47;8.80;99.90
13245;DHT22;6689;53.400;12.486;2023-04-15T04:09:14;8.80;99.90
13245;DHT22;6689;53.400;12.486;2023-04-15T04:11:41;8.80;99.90
13245;DHT22;6689;53.400;12.486;2023-04-15T04:14:10;8.80;99.90
13245;DHT22;6689;53.400;12.486;2023-04-15T04:16:37;8.80;99.90
13245;DHT22;6689;53.400;12.486;2023-04-15T04:19:09;8.80;99.90
13245;DHT22;6689;53.400;12.486;2023-04-15T04:21:36;8.80;99.90
13245;DHT22;6689;53.400;12.486;2023-04-15T04:24:06;8.70;99.90
13245;DHT22;6689;53.400;12.486;2023-04-15T04:26:35;8.70;1.00
13245;DHT22;6689;53.400;12.486;2023-04-15T04:29:02;8.70;1.00
13245;DHT22;6689;53.400;12.486;2023-04-15T04:31:32;8.70;1.00
13245;DHT22;6689;53.400;12.486;2023-04-15T04:33:59;8.80;99.90
13245;DHT22;6689;53.400;12.486;2023-04-15T04:36:28;8.70;99.90
13245;DHT22;6689;53.400;12.486;2023-04-15T04:38:55;8.80;99.90
13245;DHT22;6689;53.400;12.486;2023-04-15T04:41:23;8.80;99.90
13245;DHT22;6689;53.400;12.486;2023-04-15T04:43:50;8.80;99.90
13245;DHT22;6689;53.400;12.486;2023-04-15T04:46:17;8.80;99.90
13245;DHT22;6689;53.400;12.486;2023-04-15T04:48:45;8.80;99.90
13245;DHT22;6689;53.400;12.486;2023-04-15T04:51:17;8.80;99.90
13245;DHT22;6689;53.400;12.486;2023-04-15T04:53:48;8.80;99.90
13245;DHT22;6689;53.400;12.486;2023-04-15T04:56:15;8.80;99.90
13245;DHT22;6689;53.400;12.486;2023-04-15T04:58:43;8.80;99.90
13245;DHT22;6689;53.400;12.486;2023-04-15T05:01:10;8.90;99.90
13245;DHT22;6689;53.400;12.486;2023-04-15T05:03:38;8.80;99.90
13245;DHT22;6689;53.400;12.486;2023-04-15T05:06:05;8.70;99.90
13245;DHT22;6689;53.400;12.486;2023-04-15T05:08:33;8.80;99.90
13245;DHT22;6689;53.400;12.486;2023-04-15T05:11:02;8.80;99.90
13245;DHT22;6689;53.400;12.486;2023-04-15T05:13:29;8.80;99.90
13245;DHT22;6689;53.400;12.486;2023-04-15T05:15:58;8.80;99.90
13245;DHT22;6689;53.400;12.486;2023-04-15T05:18:25;8.70;1.00
13245;DHT22;6689;53.400;12.486;2023-04-15T05:20:53;8.80;1.00
13245;DHT22;6689;53.400;12.486;2023-04-15T05:23:20;8.80;1.40
13245;DHT22;6689;53.400;12.486;2023-04-15T05:25:47;8.80;1.00
13245;DHT22;6689;53.400;12.486;2023-04-15T05:28:16;8.90;1.00
13245;DHT22;6689;53.400;12.486;2023-04-15T05:30:44;8.90;99.90
13245;DHT22;6689;53.400;12.486;2023-04-15T05:33:13;9.00;99.90
13245;DHT22;6689;53.400;12.486;2023-04-15T05:35:41;8.70;99.90
13245;DHT22;6689;53.400;12.486;2023-04-15T05:38:10;8.80;1.00
13245;DHT22;6689;53.400;12.486;2023-04-15T05:40:37;8.90;99.90
13245;DHT22;6689;53.400;12.486;2023-04-15T05:43:05;9.00;99.90
13245;DHT22;6689;53.400;12.486;2023-04-15T05:45:34;9.00;99.90
13245;DHT22;6689;53.400;12.486;2023-04-15T05:48:04;9.00;99.90
13245;DHT22;6689;53.400;12.486;2023-04-15T05:50:31;9.00;99.90
13245;DHT22;6689;53.400;12.486;2023-04-15T05:52:59;9.00;99.90
13245;DHT22;6689;53.400;12.486;2023-04-15T05:55:26;9.00;99.90
13245;DHT22;6689;53.400;12.486;2023-04-15T05:57:56;9.00;1.00
13245;DHT22;6689;53.400;12.486;2023-04-15T06:00:24;9.00;99.90
13245;DHT22;6689;53.400;12.486;2023-04-15T06:02:55;9.10;99.90
13245;DHT22;6689;53.400;12.486;2023-04-15T06:05:24;9.00;1.00
13245;DHT22;6689;53.400;12.486;2023-04-15T06:07:51;8.80;1.00
13245;DHT22;6689;53.400;12.486;2023-04-15T06:10:18;8.90;1.00
13245;DHT22;6689;53.400;12.486;2023-04-15T06:12:45;9.00;1.00
13245;DHT22;6689;53.400;12.486;2023-04-15T06:15:13;9.00;1.00
13245;DHT22;6689;53.400;12.486;2023-04-15T06:17:40;9.10;1.00
13245;DHT22;6689;53.400;12.486;2023-04-15T06:20:10;9.00;1.00
13245;DHT22;6689;53.400;12.486;2023-04-15T06:22:39;9.20;1.00
13245;DHT22;6689;53.400;12.486;2023-04-15T06:25:07;9.30;99.90
13245;DHT22;6689;53.400;12.486;2023-04-15T06:27:35;9.30;99.90
13245;DHT22;6689;53.400;12.486;2023-04-15T06:30:03;9.30;99.90
13245;DHT22;6689;53.400;12.486;2023-04-15T06:32:31;9.40;99.90
13245;DHT22;6689;53.400;12.486;2023-04-15T06:34:59;9.50;99.90
13245;DHT22;6689;53.400;12.486;2023-04-15T06:37:28;9.60;99.90
13245;DHT22;6689;53.400;12.486;2023-04-15T06:39:57;9.50;99.90
13245;DHT22;6689;53.400;12.486;2023-04-15T06:42:26;9.50;99.90
13245;DHT22;6689;53.400;12.486;2023-04-15T06:44:54;9.70;99.90
13245;DHT22;6689;53.400;12.486;2023-04-15T06:47:23;9.90;99.90
13245;DHT22;6689;53.400;12.486;2023-04-15T06:49:50;10.00;99.90
13245;DHT22;6689;53.400;12.486;2023-04-15T06:52:20;10.00;99.90
13245;DHT22;6689;53.400;12.486;2023-04-15T06:54:49;10.10;99.90
13245;DHT22;6689;53.400;12.486;2023-04-15T06:57:18;10.20;99.90
13245;DHT22;6689;53.400;12.486;2023-04-15T06:59:46;10.30;99.90
13245;DHT22;6689;53.400;12.486;2023-04-15T07:02:19;10.30;99.90
13245;DHT22;6689;53.400;12.486;2023-04-15T07:04:47;10.50;99.90
13245;DHT22;6689;53.400;12.486;2023-04-15T07:07:16;10.80;99.90
13245;DHT22;6689;53.400;12.486;2023-04-15T07:09:43;10.80;99.90
13245;DHT22;6689;53.400;12.486;2023-04-15T07:12:12;11.30;89.90
13245;DHT22;6689;53.400;12.486;2023-04-15T07:14:40;11.40;18.00
13245;DHT22;6689;53.400;12.486;2023-04-15T07:17:08;11.30;1.00
13245;DHT22;6689;53.400;12.486;2023-04-15T07:19:36;11.30;1.00
13245;DHT22;6689;53.400;12.486;2023-04-15T07:22:03;11.90;1.00
13245;DHT22;6689;53.400;12.486;2023-04-15T07:24:31;12.20;1.00
13245;DHT22;6689;53.400;12.486;2023-04-15T07:27:00;12.50;1.00
13245;DHT22;6689;53.400;12.486;2023-04-15T07:29:33;12.40;1.00
13245;DHT22;6689;53.400;12.486;2023-04-15T07:32:00;12.30;1.00
13245;DHT22;6689;53.400;12.486;2023-04-15T07:34:29;12.10;1.00
13245;DHT22;6689;53.400;12.486;2023-04-15T07:36:56;12.00;1.00
13245;DHT22;6689;53.400;12.486;2023-04-15T07:39:24;11.70;1.00
13245;DHT22;6689;53.400;12.486;2023-04-15T07:41:51;11.40;1.00
13245;DHT22;6689;53.400;12.486;2023-04-15T07:44:19;11.30;1.00
13245;DHT22;6689;53.400;12.486;2023-04-15T07:46:48;11.60;1.00
13245;DHT22;6689;53.400;12.486;2023-04-15T07:49:16;11.50;1.00
13245;DHT22;6689;53.400;12.486;2023-04-15T07:51:44;11.40;1.00
13245;DHT22;6689;53.400;12.486;2023-04-15T07:54:11;11.40;1.00
13245;DHT22;6689;53.400;12.486;2023-04-15T07:56:38;11.40;1.00
13245;DHT22;6689;53.400;12.486;2023-04-15T07:59:06;11.70;1.00
13245;DHT22;6689;53.400;12.486;2023-04-15T08:01:40;11.60;1.00
13245;DHT22;6689;53.400;12.486;2023-04-15T08:04:09;11.70;1.00
13245;DHT22;6689;53.400;12.486;2023-04-15T08:06:36;11.70;1.00
13245;DHT22;6689;53.400;12.486;2023-04-15T08:09:04;11.70;1.00
13245;DHT22;6689;53.400;12.486;2023-04-15T08:11:33;12.00;1.00
13245;DHT22;6689;53.400;12.486;2023-04-15T08:14:05;12.00;1.00
13245;DHT22;6689;53.400;12.486;2023-04-15T08:16:32;11.90;1.00
13245;DHT22;6689;53.400;12.486;2023-04-15T08:18:59;11.80;1.00
13245;DHT22;6689;53.400;12.486;2023-04-15T08:21:31;12.10;1.00
13245;DHT22;6689;53.400;12.486;2023-04-15T08:23:58;12.60;1.00
13245;DHT22;6689;53.400;12.486;2023-04-15T08:26:26;12.50;1.00
13245;DHT22;6689;53.400;12.486;2023-04-15T08:28:53;12.40;1.00
13245;DHT22;6689;53.400;12.486;2023-04-15T08:31:21;12.80;1.00
13245;DHT22;6689;53.400;12.486;2023-04-15T08:33:50;12.40;1.00
13245;DHT22;6689;53.400;12.486;2023-04-15T08:36:19;12.60;1.00
13245;DHT22;6689;53.400;12.486;2023-04-15T08:38:48;12.60;99.90
13245;DHT22;6689;53.400;12.486;2023-04-15T08:41:20;12.60;99.90
13245;DHT22;6689;53.400;12.486;2023-04-15T08:43:52;12.60;99.90
13245;DHT22;6689;53.400;12.486;2023-04-15T08:46:20;12.70;99.90
13245;DHT22;6689;53.400;12.486;2023-04-15T08:48:49;12.80;99.90
13245;DHT22;6689;53.400;12.486;2023-04-15T08:51:19;13.30;99.90
13245;DHT22;6689;53.400;12.486;2023-04-15T08:53:48;13.60;99.90
13245;DHT22;6689;53.400;12.486;2023-04-15T08:56:15;13.70;99.90
13245;DHT22;6689;53.400;12.486;2023-04-15T08:58:44;13.70;99.90
13245;DHT22;6689;53.400;12.486;2023-04-15T09:01:12;14.00;99.90
13245;DHT22;6689;53.400;12.486;2023-04-15T09:03:41;13.70;99.90
13245;DHT22;6689;53.400;12.486;2023-04-15T09:06:08;13.90;99.90
13245;DHT22;6689;53.400;12.486;2023-04-15T09:08:36;13.80;99.90
13245;DHT22;6689;53.400;12.486;2023-04-15T09:11:05;13.90;99.90
13245;DHT22;6689;53.400;12.486;2023-04-15T09:13:32;13.90;99.90
13245;DHT22;6689;53.400;12.486;2023-04-15T09:16:01;13.90;99.90
13245;DHT22;6689;53.400;12.486;2023-04-15T09:18:30;13.90;99.90
13245;DHT22;6689;53.400;12.486;2023-04-15T09:21:04;13.90;99.90
13245;DHT22;6689;53.400;12.486;2023-04-15T09:23:33;13.50;99.90
13245;DHT22;6689;53.400;12.486;2023-04-15T09:26:01;13.40;99.90
13245;DHT22;6689;53.400;12.486;2023-04-15T09:28:32;13.40;99.90
13245;DHT22;6689;53.400;12.486;2023-04-15T09:31:01;12.80;99.90
13245;DHT22;6689;53.400;12.486;2023-04-15T09:33:30;12.90;99.90
13245;DHT22;6689;53.400;12.486;2023-04-15T09:35:59;13.00;99.90
13245;DHT22;6689;53.400;12.486;2023-04-15T09:38:30;13.00;99.90
13245;DHT22;6689;53.400;12.486;2023-04-15T09:40:57;12.90;99.90
13245;DHT22;6689;53.400;12.486;2023-04-15T09:43:40;13.00;99.90
13245;DHT22;6689;53.400;12.486;2023-04-15T09:46:09;13.10;99.90
13245;DHT22;6689;53.400;12.486;2023-04-15T09:48:36;13.00;99.90
13245;DHT22;6689;53.400;12.486;2023-04-15T09:51:04;13.00;99.90
13245;DHT22;6689;53.400;12.486;2023-04-15T09:53:35;13.10;99.90
13245;DHT22;6689;53.400;12.486;2023-04-15T09:56:03;13.00;99.90
13245;DHT22;6689;53.400;12.486;2023-04-15T09:58:33;13.10;99.90
13245;DHT22;6689;53.400;12.486;2023-04-15T10:01:04;13.00;99.90
13245;DHT22;6689;53.400;12.486;2023-04-15T10:03:34;13.00;99.90
13245;DHT22;6689;53.400;12.486;2023-04-15T10:06:09;12.90;99.90
13245;DHT22;6689;53.400;12.486;2023-04-15T10:08:37;13.00;99.90
13245;DHT22;6689;53.400;12.486;2023-04-15T10:11:06;13.10;99.90
13245;DHT22;6689;53.400;12.486;2023-04-15T10:13:34;13.20;99.90
13245;DHT22;6689;53.400;12.486;2023-04-15T10:16:07;13.00;99.90
13245;DHT22;6689;53.400;12.486;2023-04-15T10:18:39;12.70;99.90
13245;DHT22;6689;53.400;12.486;2023-04-15T10:21:08;12.90;99.90
13245;DHT22;6689;53.400;12.486;2023-04-15T10:23:35;12.80;99.90
13245;DHT22;6689;53.400;12.486;2023-04-15T10:26:03;12.80;99.90
13245;DHT22;6689;53.400;12.486;2023-04-15T10:28:31;12.70;99.90
13245;DHT22;6689;53.400;12.486;2023-04-15T10:30:59;12.60;99.90
13245;DHT22;6689;53.400;12.486;2023-04-15T10:33:29;12.50;99.90
13245;DHT22;6689;53.400;12.486;2023-04-15T10:35:57;12.60;99.90
13245;DHT22;6689;53.400;12.486;2023-04-15T10:38:31;12.60;99.90
13245;DHT22;6689;53.400;12.486;2023-04-15T10:41:12;12.60;99.90
13245;DHT22;6689;53.400;12.486;2023-04-15T10:43:45;12.60;99.90
13245;DHT22;6689;53.400;12.486;2023-04-15T10:46:17;12.80;99.90
13245;DHT22;6689;53.400;12.486;2023-04-15T10:48:51;12.90;99.90
13245;DHT22;6689;53.400;12.486;2023-04-15T10:51:29;12.80;99.90
13245;DHT22;6689;53.400;12.486;2023-04-15T10:53:58;12.80;99.90
13245;DHT22;6689;53.400;12.486;2023-04-15T10:56:27;13.00;99.90
13245;DHT22;6689;53.400;12.486;2023-04-15T10:58:58;13.00;99.90
13245;DHT22;6689;53.400;12.486;2023-04-15T11:01:50;13.00;99.90
13245;DHT22;6689;53.400;12.486;2023-04-15T11:04:54;12.90;99.90
13245;DHT22;6689;53.400;12.486;2023-04-15T11:10:51;13.00;99.90
13245;DHT22;6689;53.400;12.486;2023-04-15T11:13:26;12.80;99.90
13245;DHT22;6689;53.400;12.486;2023-04-15T11:15:58;12.90;99.90
13245;DHT22;6689;53.400;12.486;2023-04-15T11:18:30;12.80;99.90
13245;DHT22;6689;53.400;12.486;2023-04-15T11:21:01;12.70;99.90
13245;DHT22;6689;53.400;12.486;2023-04-15T11:23:31;12.90;99.90
13245;DHT22;6689;53.400;12.486;2023-04-15T11:26:00;12.90;99.90
13245;DHT22;6689;53.400;12.486;2023-04-15T11:28:31;12.90;99.90
13245;DHT22;6689;53.400;12.486;2023-04-15T11:31:08;12.80;99.90
13245;DHT22;6689;53.400;12.486;2023-04-15T11:33:37;12.70;99.90
13245;DHT22;6689;53.400;12.486;2023-04-15T11:36:09;12.90;99.90
13245;DHT22;6689;53.400;12.486;2023-04-15T11:38:37;12.70;99.90
13245;DHT22;6689;53.400;12.486;2023-04-15T11:41:08;12.80;99.90
13245;DHT22;6689;53.400;12.486;2023-04-15T11:43:35;13.00;99.90
13245;DHT22;6689;53.400;12.486;2023-04-15T11:46:04;12.90;99.90
13245;DHT22;6689;53.400;12.486;2023-04-15T11:48:32;13.10;99.90
13245;DHT22;6689;53.400;12.486;2023-04-15T11:51:01;13.00;99.90
13245;DHT22;6689;53.400;12.486;2023-04-15T11:53:38;13.20;99.90
13245;DHT22;6689;53.400;12.486;2023-04-15T11:56:07;13.10;99.90
13245;DHT22;6689;53.400;12.486;2023-04-15T11:58:35;13.10;99.90
13245;DHT22;6689;53.400;12.486;2023-04-15T12:01:04;13.20;99.90
13245;DHT22;6689;53.400;12.486;2023-04-15T12:03:37;13.30;99.90
13245;DHT22;6689;53.400;12.486;2023-04-15T12:06:13;13.40;99.90
13245;DHT22;6689;53.400;12.486;2023-04-15T12:08:50;13.30;99.90
13245;DHT22;6689;53.400;12.486;2023-04-15T12:11:20;13.40;99.90
13245;DHT22;6689;53.400;12.486;2023-04-15T12:13:53;13.50;99.90
13245;DHT22;6689;53.400;12.486;2023-04-15T12:16:22;13.30;99.90
13245;DHT22;6689;53.400;12.486;2023-04-15T12:18:52;13.40;99.90
13245;DHT22;6689;53.400;12.486;2023-04-15T12:21:21;13.10;99.90
13245;DHT22;6689;53.400;12.486;2023-04-15T12:23:51;13.40;99.90
13245;DHT22;6689;53.400;12.486;2023-04-15T12:26:25;13.20;99.90
13245;DHT22;6689;53.400;12.486;2023-04-15T12:28:58;13.40;99.90
13245;DHT22;6689;53.400;12.486;2023-04-15T12:31:26;13.60;99.90
13245;DHT22;6689;53.400;12.486;2023-04-15T12:33:54;13.70;99.90
13245;DHT22;6689;53.400;12.486;2023-04-15T12:36:22;13.80;99.90
13245;DHT22;6689;53.400;12.486;2023-04-15T12:38:50;13.70;99.90
13245;DHT22;6689;53.400;12.486;2023-04-15T12:41:19;13.90;99.90
13245;DHT22;6689;53.400;12.486;2023-04-15T12:43:49;13.80;99.90
13245;DHT22;6689;53.400;12.486;2023-04-15T12:46:17;13.90;99.90
13245;DHT22;6689;53.400;12.486;2023-04-15T12:48:52;13.80;99.90
13245;DHT22;6689;53.400;12.486;2023-04-15T12:51:22;13.90;99.90
13245;DHT22;6689;53.400;12.486;2023-04-15T12:53:51;13.90;99.90
13245;DHT22;6689;53.400;12.486;2023-04-15T12:56:18;13.80;99.90
13245;DHT22;6689;53.400;12.486;2023-04-15T12:58:46;13.60;99.90
13245;DHT22;6689;53.400;12.486;2023-04-15T13:01:13;13.60;99.90
13245;DHT22;6689;53.400;12.486;2023-04-15T13:03:43;13.60;99.90
13245;DHT22;6689;53.400;12.486;2023-04-15T13:06:10;13.60;99.90
13245;DHT22;6689;53.400;12.486;2023-04-15T13:08:38;13.60;99.90
13245;DHT22;6689;53.400;12.486;2023-04-15T13:11:07;13.50;99.90
13245;DHT22;6689;53.400;12.486;2023-04-15T13:13:34;13.50;99.90
13245;DHT22;6689;53.400;12.486;2023-04-15T13:16:02;13.60;99.90
13245;DHT22;6689;53.400;12.486;2023-04-15T13:18:30;13.60;99.90
13245;DHT22;6689;53.400;12.486;2023-04-15T13:21:02;13.40;99.90
13245;DHT22;6689;53.400;12.486;2023-04-15T13:23:32;13.40;99.90
13245;DHT22;6689;53.400;12.486;2023-04-15T13:25:59;13.50;99.90
13245;DHT22;6689;53.400;12.486;2023-04-15T13:28:28;13.40;99.90
13245;DHT22;6689;53.400;12.486;2023-04-15T13:30:55;13.20;99.90
13245;DHT22;6689;53.400;12.486;2023-04-15T13:33:23;13.20;99.90
13245;DHT22;6689;53.400;12.486;2023-04-15T13:35:50;13.10;99.90
13245;DHT22;6689;53.400;12.486;2023-04-15T13:38:18;13.20;99.90
13245;DHT22;6689;53.400;12.486;2023-04-15T13:40:48;13.30;99.90
13245;DHT22;6689;53.400;12.486;2023-04-15T13:43:15;13.30;99.90
13245;DHT22;6689;53.400;12.486;2023-04-15T13:45:46;13.20;99.90
13245;DHT22;6689;53.400;12.486;2023-04-15T13:48:13;13.20;99.90
13245;DHT22;6689;53.400;12.486;2023-04-15T13:50:40;13.20;99.90
13245;DHT22;6689;53.400;12.486;2023-04-15T13:53:10;13.30;99.90
13245;DHT22;6689;53.400;12.486;2023-04-15T13:55:37;13.30;99.90
13245;DHT22;6689;53.400;12.486;2023-04-15T13:58:07;13.40;99.90
13245;DHT22;6689;53.400;12.486;2023-04-15T14:00:37;13.40;99.90
13245;DHT22;6689;53.400;12.486;2023-04-15T14:03:09;13.40;99.90
13245;DHT22;6689;53.400;12.486;2023-04-15T14:05:36;13.20;99.90
13245;DHT22;6689;53.400;12.486;2023-04-15T14:08:04;13.20;99.90
13245;DHT22;6689;53.400;12.486;2023-04-15T14:10:34;13.40;99.90
13245;DHT22;6689;53.400;12.486;2023-04-15T14:13:02;13.40;99.90
13245;DHT22;6689;53.400;12.486;2023-04-15T14:15:30;13.50;99.90
13245;DHT22;6689;53.400;12.486;2023-04-15T14:17:59;13.20;99.90
13245;DHT22;6689;53.400;12.486;2023-04-15T14:20:28;13.40;99.90
13245;DHT22;6689;53.400;12.486;2023-04-15T14:22:55;13.30;99.90
13245;DHT22;6689;53.400;12.486;2023-04-15T14:25:22;13.10;99.90
13245;DHT22;6689;53.400;12.486;2023-04-15T14:27:50;12.90;99.90
13245;DHT22;6689;53.400;12.486;2023-04-15T14:30:19;13.00;99.90
13245;DHT22;6689;53.400;12.486;2023-04-15T14:32:46;13.00;99.90
13245;DHT22;6689;53.400;12.486;2023-04-15T14:35:13;13.20;99.90
13245;DHT22;6689;53.400;12.486;2023-04-15T14:37:45;13.10;99.90
13245;DHT22;6689;53.400;12.486;2023-04-15T14:40:14;13.00;99.90
13245;DHT22;6689;53.400;12.486;2023-04-15T14:42:41;13.00;99.90
13245;DHT22;6689;53.400;12.486;2023-04-15T14:45:09;13.00;99.90
13245;DHT22;6689;53.400;12.486;2023-04-15T14:47:37;13.00;99.90
13245;DHT22;6689;53.400;12.486;2023-04-15T14:50:05;13.10;99.90
13245;DHT22;6689;53.400;12.486;2023-04-15T14:52:32;13.20;99.90
13245;DHT22;6689;53.400;12.486;2023-04-15T14:55:06;12.90;99.90
13245;DHT22;6689;53.400;12.486;2023-04-15T14:57:35;13.00;99.90
13245;DHT22;6689;53.400;12.486;2023-04-15T15:00:08;13.10;99.90
13245;DHT22;6689;53.400;12.486;2023-04-15T15:02:36;12.90;99.90
13245;DHT22;6689;53.400;12.486;2023-04-15T15:05:04;13.00;99.90
13245;DHT22;6689;53.400;12.486;2023-04-15T15:07:33;12.80;99.90
13245;DHT22;6689;53.400;12.486;2023-04-15T15:10:01;12.80;99.90
13245;DHT22;6689;53.400;12.486;2023-04-15T15:12:31;12.80;99.90
13245;DHT22;6689;53.400;12.486;2023-04-15T15:15:03;12.70;99.90
13245;DHT22;6689;53.400;12.486;2023-04-15T15:17:30;12.90;99.90
13245;DHT22;6689;53.400;12.486;2023-04-15T15:19:58;12.80;99.90
13245;DHT22;6689;53.400;12.486;2023-04-15T15:22:25;12.90;99.90
13245;DHT22;6689;53.400;12.486;2023-04-15T15:24:52;12.70;99.90
13245;DHT22;6689;53.400;12.486;2023-04-15T15:27:23;12.70;99.90
13245;DHT22;6689;53.400;12.486;2023-04-15T15:29:53;12.90;99.90
13245;DHT22;6689;53.400;12.486;2023-04-15T15:32:21;12.90;99.90
13245;DHT22;6689;53.400;12.486;2023-04-15T15:34:49;12.50;99.90
13245;DHT22;6689;53.400;12.486;2023-04-15T15:37:17;12.80;99.90
13245;DHT22;6689;53.400;12.486;2023-04-15T15:39:44;12.80;99.90
13245;DHT22;6689;53.400;12.486;2023-04-15T15:42:11;12.80;99.90
13245;DHT22;6689;53.400;12.486;2023-04-15T15:44:39;12.70;99.90
13245;DHT22;6689;53.400;12.486;2023-04-15T15:47:08;12.90;99.90
13245;DHT22;6689;53.400;12.486;2023-04-15T15:49:35;12.80;99.90
13245;DHT22;6689;53.400;12.486;2023-04-15T15:52:03;13.00;99.90